sensor_id;sensor_type;location;lat;lon;timestamp;P1;durP1;ratioP1;P2;durP2;ratioP2
75016;SDS011;63577;39.766;2.720;2023-06-04T00:02:07;6.00;;;3.40;;
75016;SDS011;63577;39.766;2.720;2023-06-04T00:04:33;6.10;;;3.20;;
75016;SDS011;63577;39.766;2.720;2023-06-04T00:06:58;6.70;;;3.40;;
75016;SDS011;63577;39.766;2.720;2023-06-04T00:09:23;6.50;;;3.40;;
75016;SDS011;63577;39.766;2.720;2023-06-04T00:11:49;8.50;;;3.90;;
75016;SDS011;63577;39.766;2.720;2023-06-04T00:14:14;6.10;;;3.60;;
75016;SDS011;63577;39.766;2.720;2023-06-04T00:16:40;7.10;;;3.70;;
75016;SDS011;63577;39.766;2.720;2023-06-04T00:19:06;8.00;;;3.60;;
75016;SDS011;63577;39.766;2.720;2023-06-04T00:21:31;7.00;;;3.30;;
75016;SDS011;63577;39.766;2.720;2023-06-04T00:23:56;7.60;;;3.20;;
75016;SDS011;63577;39.766;2.720;2023-06-04T00:26:22;5.40;;;3.20;;
75016;SDS011;63577;39.766;2.720;2023-06-04T00:28:47;5.00;;;3.10;;
75016;SDS011;63577;39.766;2.720;2023-06-04T00:31:12;6.20;;;3.00;;
75016;SDS011;63577;39.766;2.720;2023-06-04T00:33:41;4.80;;;3.00;;
75016;SDS011;63577;39.766;2.720;2023-06-04T00:36:06;7.80;;;3.60;;
75016;SDS011;63577;39.766;2.720;2023-06-04T00:38:32;7.50;;;3.60;;
75016;SDS011;63577;39.766;2.720;2023-06-04T00:40:57;4.80;;;2.90;;
75016;SDS011;63577;39.766;2.720;2023-06-04T00:43:23;5.70;;;3.10;;
75016;SDS011;63577;39.766;2.720;2023-06-04T00:45:51;6.80;;;3.50;;
75016;SDS011;63577;39.766;2.720;2023-06-04T00:48:16;7.40;;;3.10;;
75016;SDS011;63577;39.766;2.720;2023-06-04T00:50:41;5.90;;;3.30;;
75016;SDS011;63577;39.766;2.720;2023-06-04T00:53:07;6.00;;;3.30;;
75016;SDS011;63577;39.766;2.720;2023-06-04T00:55:33;5.60;;;3.10;;
75016;SDS011;63577;39.766;2.720;2023-06-04T00:57:59;6.00;;;3.10;;
75016;SDS011;63577;39.766;2.720;2023-06-04T01:00:26;6.60;;;3.30;;
75016;SDS011;63577;39.766;2.720;2023-06-04T01:02:51;7.40;;;3.10;;
75016;SDS011;63577;39.766;2.720;2023-06-04T01:07:44;6.70;;;2.70;;
75016;SDS011;63577;39.766;2.720;2023-06-04T01:10:12;7.40;;;3.40;;
75016;SDS011;63577;39.766;2.720;2023-06-04T01:12:40;6.20;;;3.00;;
75016;SDS011;63577;39.766;2.720;2023-06-04T01:15:06;5.80;;;2.90;;
75016;SDS011;63577;39.766;2.720;2023-06-04T01:17:34;5.20;;;2.80;;
75016;SDS011;63577;39.766;2.720;2023-06-04T01:25:22;6.40;;;2.70;;
75016;SDS011;63577;39.766;2.720;2023-06-04T01:27:51;6.40;;;3.30;;
75016;SDS011;63577;39.766;2.720;2023-06-04T01:30:19;5.40;;;2.80;;
75016;SDS011;63577;39.766;2.720;2023-06-04T01:32:45;6.00;;;2.80;;
75016;SDS011;63577;39.766;2.720;2023-06-04T01:35:12;6.30;;;3.20;;
75016;SDS011;63577;39.766;2.720;2023-06-04T01:37:37;5.60;;;3.00;;
75016;SDS011;63577;39.766;2.720;2023-06-04T01:40:03;5.60;;;2.60;;
75016;SDS011;63577;39.766;2.720;2023-06-04T01:42:30;5.50;;;3.20;;
75016;SDS011;63577;39.766;2.720;2023-06-04T01:44:55;5.50;;;2.80;;
75016;SDS011;63577;39.766;2.720;2023-06-04T01:47:20;6.40;;;2.90;;
75016;SDS011;63577;39.766;2.720;2023-06-04T01:49:46;5.10;;;2.80;;
75016;SDS011;63577;39.766;2.720;2023-06-04T01:52:11;6.50;;;2.60;;
75016;SDS011;63577;39.766;2.720;2023-06-04T01:54:36;5.60;;;3.00;;
75016;SDS011;63577;39.766;2.720;2023-06-04T01:57:03;5.80;;;3.30;;
75016;SDS011;63577;39.766;2.720;2023-06-04T01:59:30;5.30;;;3.10;;
75016;SDS011;63577;39.766;2.720;2023-06-04T02:01:57;7.40;;;3.40;;
75016;SDS011;63577;39.766;2.720;2023-06-04T02:04:22;6.30;;;2.80;;
75016;SDS011;63577;39.766;2.720;2023-06-04T02:06:49;7.50;;;3.00;;
75016;SDS011;63577;39.766;2.720;2023-06-04T02:09:14;6.10;;;3.20;;
75016;SDS011;63577;39.766;2.720;2023-06-04T02:11:40;5.50;;;2.40;;
75016;SDS011;63577;39.766;2.720;2023-06-04T02:14:05;9.70;;;2.80;;
75016;SDS011;63577;39.766;2.720;2023-06-04T02:16:30;7.20;;;3.30;;
75016;SDS011;63577;39.766;2.720;2023-06-04T02:18:57;4.90;;;2.70;;
75016;SDS011;63577;39.766;2.720;2023-06-04T02:21:24;6.20;;;2.90;;
75016;SDS011;63577;39.766;2.720;2023-06-04T02:23:49;5.40;;;2.80;;
75016;SDS011;63577;39.766;2.720;2023-06-04T02:26:15;5.30;;;2.80;;
75016;SDS011;63577;39.766;2.720;2023-06-04T02:28:41;4.30;;;2.70;;
75016;SDS011;63577;39.766;2.720;2023-06-04T02:31:06;6.00;;;3.00;;
75016;SDS011;63577;39.766;2.720;2023-06-04T02:33:31;6.10;;;2.80;;
75016;SDS011;63577;39.766;2.720;2023-06-04T02:35:57;5.50;;;3.20;;
75016;SDS011;63577;39.766;2.720;2023-06-04T02:38:22;6.10;;;3.00;;
75016;SDS011;63577;39.766;2.720;2023-06-04T02:40:48;5.70;;;2.70;;
75016;SDS011;63577;39.766;2.720;2023-06-04T02:43:13;4.30;;;2.40;;
75016;SDS011;63577;39.766;2.720;2023-06-04T02:45:38;10.60;;;3.50;;
75016;SDS011;63577;39.766;2.720;2023-06-04T02:48:04;5.90;;;2.90;;
75016;SDS011;63577;39.766;2.720;2023-06-04T02:50:29;6.80;;;3.00;;
75016;SDS011;63577;39.766;2.720;2023-06-04T02:52:55;6.80;;;2.70;;
75016;SDS011;63577;39.766;2.720;2023-06-04T02:55:20;6.50;;;2.60;;
75016;SDS011;63577;39.766;2.720;2023-06-04T02:57:45;5.00;;;2.40;;
75016;SDS011;63577;39.766;2.720;2023-06-04T03:00:11;4.70;;;2.80;;
75016;SDS011;63577;39.766;2.720;2023-06-04T03:02:46;5.80;;;2.70;;
75016;SDS011;63577;39.766;2.720;2023-06-04T03:05:12;5.30;;;2.50;;
75016;SDS011;63577;39.766;2.720;2023-06-04T03:07:39;6.20;;;2.80;;
75016;SDS011;63577;39.766;2.720;2023-06-04T03:10:06;5.40;;;2.90;;
75016;SDS011;63577;39.766;2.720;2023-06-04T03:12:32;6.00;;;2.60;;
75016;SDS011;63577;39.766;2.720;2023-06-04T03:14:57;6.20;;;3.10;;
75016;SDS011;63577;39.766;2.720;2023-06-04T03:17:23;5.30;;;3.00;;
75016;SDS011;63577;39.766;2.720;2023-06-04T03:19:48;5.30;;;3.00;;
75016;SDS011;63577;39.766;2.720;2023-06-04T03:22:14;6.00;;;3.20;;
75016;SDS011;63577;39.766;2.720;2023-06-04T03:24:40;5.90;;;2.90;;
75016;SDS011;63577;39.766;2.720;2023-06-04T03:27:06;6.50;;;2.40;;
75016;SDS011;63577;39.766;2.720;2023-06-04T03:29:32;7.00;;;3.70;;
75016;SDS011;63577;39.766;2.720;2023-06-04T03:31:58;6.20;;;3.40;;
75016;SDS011;63577;39.766;2.720;2023-06-04T03:34:23;5.80;;;3.10;;
75016;SDS011;63577;39.766;2.720;2023-06-04T03:36:51;4.90;;;3.10;;
75016;SDS011;63577;39.766;2.720;2023-06-04T03:39:17;6.00;;;3.30;;
75016;SDS011;63577;39.766;2.720;2023-06-04T03:41:42;5.60;;;2.90;;
75016;SDS011;63577;39.766;2.720;2023-06-04T03:44:08;5.50;;;3.00;;
75016;SDS011;63577;39.766;2.720;2023-06-04T03:46:33;4.80;;;2.40;;
75016;SDS011;63577;39.766;2.720;2023-06-04T03:48:59;5.60;;;2.90;;
75016;SDS011;63577;39.766;2.720;2023-06-04T03:51:24;5.00;;;3.00;;
75016;SDS011;63577;39.766;2.720;2023-06-04T03:53:50;6.00;;;3.40;;
75016;SDS011;63577;39.766;2.720;2023-06-04T03:56:15;4.90;;;2.80;;
75016;SDS011;63577;39.766;2.720;2023-06-04T03:58:41;7.10;;;3.20;;
75016;SDS011;63577;39.766;2.720;2023-06-04T04:01:06;5.10;;;2.80;;
75016;SDS011;63577;39.766;2.720;2023-06-04T04:03:33;6.90;;;2.90;;
75016;SDS011;63577;39.766;2.720;2023-06-04T04:06:00;6.30;;;3.10;;
75016;SDS011;63577;39.766;2.720;2023-06-04T04:08:25;6.00;;;3.30;;
75016;SDS011;63577;39.766;2.720;2023-06-04T04:10:59;6.50;;;3.40;;
75016;SDS011;63577;39.766;2.720;2023-06-04T04:13:24;6.50;;;2.70;;
75016;SDS011;63577;39.766;2.720;2023-06-04T04:15:50;6.00;;;2.70;;
75016;SDS011;63577;39.766;2.720;2023-06-04T04:18:19;4.40;;;3.00;;
75016;SDS011;63577;39.766;2.720;2023-06-04T04:20:47;5.20;;;3.30;;
75016;SDS011;63577;39.766;2.720;2023-06-04T04:23:12;7.40;;;2.90;;
75016;SDS011;63577;39.766;2.720;2023-06-04T04:25:38;5.50;;;3.00;;
75016;SDS011;63577;39.766;2.720;2023-06-04T04:28:04;6.80;;;3.10;;
75016;SDS011;63577;39.766;2.720;2023-06-04T04:30:32;8.40;;;3.30;;
75016;SDS011;63577;39.766;2.720;2023-06-04T04:33:00;6.50;;;3.20;;
75016;SDS011;63577;39.766;2.720;2023-06-04T04:35:25;6.60;;;2.90;;
75016;SDS011;63577;39.766;2.720;2023-06-04T04:37:51;5.30;;;3.00;;
75016;SDS011;63577;39.766;2.720;2023-06-04T04:40:16;5.70;;;2.40;;
75016;SDS011;63577;39.766;2.720;2023-06-04T04:42:41;5.10;;;2.90;;
75016;SDS011;63577;39.766;2.720;2023-06-04T04:45:07;5.40;;;2.70;;
75016;SDS011;63577;39.766;2.720;2023-06-04T04:47:33;5.00;;;2.80;;
75016;SDS011;63577;39.766;2.720;2023-06-04T04:49:58;5.40;;;2.90;;
75016;SDS011;63577;39.766;2.720;2023-06-04T04:52:23;5.20;;;2.70;;
75016;SDS011;63577;39.766;2.720;2023-06-04T04:54:49;6.00;;;2.90;;
75016;SDS011;63577;39.766;2.720;2023-06-04T04:57:14;4.90;;;2.80;;
75016;SDS011;63577;39.766;2.720;2023-06-04T04:59:39;4.80;;;2.90;;
75016;SDS011;63577;39.766;2.720;2023-06-04T05:02:05;6.40;;;2.90;;
75016;SDS011;63577;39.766;2.720;2023-06-04T05:04:30;5.70;;;3.00;;
75016;SDS011;63577;39.766;2.720;2023-06-04T05:06:55;5.80;;;3.10;;
75016;SDS011;63577;39.766;2.720;2023-06-04T05:09:21;8.80;;;3.10;;
75016;SDS011;63577;39.766;2.720;2023-06-04T05:11:47;7.10;;;2.80;;
75016;SDS011;63577;39.766;2.720;2023-06-04T05:14:12;6.40;;;3.00;;
75016;SDS011;63577;39.766;2.720;2023-06-04T05:16:38;6.10;;;3.00;;
75016;SDS011;63577;39.766;2.720;2023-06-04T05:19:06;5.90;;;3.40;;
75016;SDS011;63577;39.766;2.720;2023-06-04T05:21:31;6.70;;;3.80;;
75016;SDS011;63577;39.766;2.720;2023-06-04T05:23:56;5.70;;;3.30;;
75016;SDS011;63577;39.766;2.720;2023-06-04T05:26:22;7.70;;;3.20;;
75016;SDS011;63577;39.766;2.720;2023-06-04T05:28:48;4.90;;;2.90;;
75016;SDS011;63577;39.766;2.720;2023-06-04T05:31:14;7.60;;;3.50;;
75016;SDS011;63577;39.766;2.720;2023-06-04T05:33:40;6.80;;;3.70;;
75016;SDS011;63577;39.766;2.720;2023-06-04T05:36:06;7.00;;;3.70;;
75016;SDS011;63577;39.766;2.720;2023-06-04T05:38:32;5.60;;;3.50;;
75016;SDS011;63577;39.766;2.720;2023-06-04T05:40:57;6.90;;;3.60;;
75016;SDS011;63577;39.766;2.720;2023-06-04T05:43:23;8.70;;;3.90;;
75016;SDS011;63577;39.766;2.720;2023-06-04T05:45:48;7.00;;;3.50;;
75016;SDS011;63577;39.766;2.720;2023-06-04T05:48:14;7.80;;;3.30;;
75016;SDS011;63577;39.766;2.720;2023-06-04T05:50:39;6.00;;;3.70;;
75016;SDS011;63577;39.766;2.720;2023-06-04T05:53:05;7.10;;;3.80;;
75016;SDS011;63577;39.766;2.720;2023-06-04T05:55:31;7.50;;;3.30;;
75016;SDS011;63577;39.766;2.720;2023-06-04T05:57:56;5.50;;;3.60;;
75016;SDS011;63577;39.766;2.720;2023-06-04T06:00:22;6.10;;;3.20;;
75016;SDS011;63577;39.766;2.720;2023-06-04T06:02:49;5.70;;;3.20;;
75016;SDS011;63577;39.766;2.720;2023-06-04T06:05:14;6.70;;;3.70;;
75016;SDS011;63577;39.766;2.720;2023-06-04T06:07:40;6.00;;;3.60;;
75016;SDS011;63577;39.766;2.720;2023-06-04T06:10:06;6.10;;;3.40;;
75016;SDS011;63577;39.766;2.720;2023-06-04T06:12:31;8.60;;;3.60;;
75016;SDS011;63577;39.766;2.720;2023-06-04T06:14:57;5.60;;;3.60;;
75016;SDS011;63577;39.766;2.720;2023-06-04T06:17:22;6.80;;;3.70;;
75016;SDS011;63577;39.766;2.720;2023-06-04T06:19:48;5.60;;;3.30;;
75016;SDS011;63577;39.766;2.720;2023-06-04T06:22:13;8.20;;;4.30;;
75016;SDS011;63577;39.766;2.720;2023-06-04T06:24:39;6.60;;;3.60;;
75016;SDS011;63577;39.766;2.720;2023-06-04T06:27:04;6.20;;;3.40;;
75016;SDS011;63577;39.766;2.720;2023-06-04T06:29:30;7.90;;;4.10;;
75016;SDS011;63577;39.766;2.720;2023-06-04T06:31:55;6.60;;;3.90;;
75016;SDS011;63577;39.766;2.720;2023-06-04T06:34:20;6.60;;;4.30;;
75016;SDS011;63577;39.766;2.720;2023-06-04T06:36:46;7.80;;;4.20;;
75016;SDS011;63577;39.766;2.720;2023-06-04T06:39:12;8.00;;;4.90;;
75016;SDS011;63577;39.766;2.720;2023-06-04T06:41:37;8.30;;;4.60;;
75016;SDS011;63577;39.766;2.720;2023-06-04T06:44:04;7.50;;;4.40;;
75016;SDS011;63577;39.766;2.720;2023-06-04T06:46:29;8.30;;;4.30;;
75016;SDS011;63577;39.766;2.720;2023-06-04T06:48:55;7.30;;;4.30;;
75016;SDS011;63577;39.766;2.720;2023-06-04T06:51:20;7.30;;;4.30;;
75016;SDS011;63577;39.766;2.720;2023-06-04T06:53:45;8.00;;;4.20;;
75016;SDS011;63577;39.766;2.720;2023-06-04T06:56:11;7.60;;;4.90;;
75016;SDS011;63577;39.766;2.720;2023-06-04T06:58:36;6.70;;;4.10;;
75016;SDS011;63577;39.766;2.720;2023-06-04T07:01:01;7.50;;;4.80;;
75016;SDS011;63577;39.766;2.720;2023-06-04T07:03:27;7.40;;;4.00;;
75016;SDS011;63577;39.766;2.720;2023-06-04T07:05:53;7.40;;;4.60;;
75016;SDS011;63577;39.766;2.720;2023-06-04T07:08:18;8.00;;;4.30;;
75016;SDS011;63577;39.766;2.720;2023-06-04T07:10:43;6.20;;;4.00;;
75016;SDS011;63577;39.766;2.720;2023-06-04T07:13:09;9.40;;;3.90;;
75016;SDS011;63577;39.766;2.720;2023-06-04T07:15:34;7.70;;;4.70;;
75016;SDS011;63577;39.766;2.720;2023-06-04T07:18:00;21.00;;;13.40;;
75016;SDS011;63577;39.766;2.720;2023-06-04T07:20:25;37.40;;;22.20;;
75016;SDS011;63577;39.766;2.720;2023-06-04T07:22:50;24.00;;;15.50;;
75016;SDS011;63577;39.766;2.720;2023-06-04T07:25:16;23.60;;;14.20;;
75016;SDS011;63577;39.766;2.720;2023-06-04T07:27:41;24.80;;;13.70;;
75016;SDS011;63577;39.766;2.720;2023-06-04T07:30:07;21.60;;;13.50;;
75016;SDS011;63577;39.766;2.720;2023-06-04T07:32:33;12.30;;;6.20;;
75016;SDS011;63577;39.766;2.720;2023-06-04T07:34:58;7.80;;;4.60;;
75016;SDS011;63577;39.766;2.720;2023-06-04T07:37:23;7.60;;;4.50;;
75016;SDS011;63577;39.766;2.720;2023-06-04T07:39:49;9.20;;;4.70;;
75016;SDS011;63577;39.766;2.720;2023-06-04T07:42:14;5.70;;;3.30;;
75016;SDS011;63577;39.766;2.720;2023-06-04T07:44:40;7.10;;;3.30;;
75016;SDS011;63577;39.766;2.720;2023-06-04T07:47:05;5.40;;;3.00;;
75016;SDS011;63577;39.766;2.720;2023-06-04T07:49:31;5.00;;;3.20;;
75016;SDS011;63577;39.766;2.720;2023-06-04T07:51:56;6.60;;;3.30;;
75016;SDS011;63577;39.766;2.720;2023-06-04T07:54:21;6.10;;;3.40;;
75016;SDS011;63577;39.766;2.720;2023-06-04T07:56:47;6.30;;;3.50;;
75016;SDS011;63577;39.766;2.720;2023-06-04T07:59:12;6.10;;;3.90;;
75016;SDS011;63577;39.766;2.720;2023-06-04T08:01:38;7.30;;;4.10;;
75016;SDS011;63577;39.766;2.720;2023-06-04T08:04:03;7.30;;;3.90;;
75016;SDS011;63577;39.766;2.720;2023-06-04T08:06:28;7.40;;;4.40;;
75016;SDS011;63577;39.766;2.720;2023-06-04T08:08:54;7.10;;;4.00;;
75016;SDS011;63577;39.766;2.720;2023-06-04T08:11:19;6.50;;;3.90;;
75016;SDS011;63577;39.766;2.720;2023-06-04T08:13:48;7.50;;;4.30;;
75016;SDS011;63577;39.766;2.720;2023-06-04T08:16:13;5.00;;;3.20;;
75016;SDS011;63577;39.766;2.720;2023-06-04T08:18:39;5.80;;;3.30;;
75016;SDS011;63577;39.766;2.720;2023-06-04T08:21:05;4.50;;;3.10;;
75016;SDS011;63577;39.766;2.720;2023-06-04T08:23:31;6.30;;;3.30;;
75016;SDS011;63577;39.766;2.720;2023-06-04T08:25:56;5.50;;;3.50;;
75016;SDS011;63577;39.766;2.720;2023-06-04T08:28:21;7.30;;;3.60;;
75016;SDS011;63577;39.766;2.720;2023-06-04T08:30:47;8.00;;;3.70;;
75016;SDS011;63577;39.766;2.720;2023-06-04T08:33:12;5.60;;;3.70;;
75016;SDS011;63577;39.766;2.720;2023-06-04T08:35:37;5.70;;;3.50;;
75016;SDS011;63577;39.766;2.720;2023-06-04T08:38:03;6.40;;;3.40;;
75016;SDS011;63577;39.766;2.720;2023-06-04T08:40:28;4.90;;;3.00;;
75016;SDS011;63577;39.766;2.720;2023-06-04T08:42:55;7.10;;;3.40;;
75016;SDS011;63577;39.766;2.720;2023-06-04T08:45:23;6.50;;;3.70;;
75016;SDS011;63577;39.766;2.720;2023-06-04T08:47:49;5.20;;;3.40;;
75016;SDS011;63577;39.766;2.720;2023-06-04T08:50:19;5.70;;;3.30;;
75016;SDS011;63577;39.766;2.720;2023-06-04T08:52:45;8.00;;;3.60;;
75016;SDS011;63577;39.766;2.720;2023-06-04T08:55:11;6.20;;;3.90;;
75016;SDS011;63577;39.766;2.720;2023-06-04T08:57:38;7.20;;;4.10;;
75016;SDS011;63577;39.766;2.720;2023-06-04T09:00:04;5.40;;;3.50;;
75016;SDS011;63577;39.766;2.720;2023-06-04T09:02:32;5.90;;;3.30;;
75016;SDS011;63577;39.766;2.720;2023-06-04T09:04:58;6.30;;;3.70;;
75016;SDS011;63577;39.766;2.720;2023-06-04T09:07:24;5.20;;;3.10;;
75016;SDS011;63577;39.766;2.720;2023-06-04T09:09:50;5.10;;;3.20;;
75016;SDS011;63577;39.766;2.720;2023-06-04T09:12:17;4.90;;;2.80;;
75016;SDS011;63577;39.766;2.720;2023-06-04T09:14:46;5.60;;;3.00;;
75016;SDS011;63577;39.766;2.720;2023-06-04T09:17:12;6.10;;;3.80;;
75016;SDS011;63577;39.766;2.720;2023-06-04T09:19:37;5.50;;;2.90;;
75016;SDS011;63577;39.766;2.720;2023-06-04T09:22:03;6.90;;;3.20;;
75016;SDS011;63577;39.766;2.720;2023-06-04T09:24:41;6.10;;;3.10;;
75016;SDS011;63577;39.766;2.720;2023-06-04T09:27:14;6.00;;;3.20;;
75016;SDS011;63577;39.766;2.720;2023-06-04T09:29:40;6.30;;;3.60;;
75016;SDS011;63577;39.766;2.720;2023-06-04T09:32:05;7.30;;;3.50;;
75016;SDS011;63577;39.766;2.720;2023-06-04T09:34:31;7.00;;;4.00;;
75016;SDS011;63577;39.766;2.720;2023-06-04T09:36:56;5.90;;;3.60;;
75016;SDS011;63577;39.766;2.720;2023-06-04T09:39:22;6.60;;;3.70;;
75016;SDS011;63577;39.766;2.720;2023-06-04T09:42:00;6.60;;;3.60;;
75016;SDS011;63577;39.766;2.720;2023-06-04T09:44:26;5.50;;;3.00;;
75016;SDS011;63577;39.766;2.720;2023-06-04T09:46:56;5.10;;;3.20;;
75016;SDS011;63577;39.766;2.720;2023-06-04T09:49:21;5.70;;;3.80;;
75016;SDS011;63577;39.766;2.720;2023-06-04T09:51:47;5.20;;;3.10;;
75016;SDS011;63577;39.766;2.720;2023-06-04T09:54:13;5.80;;;3.50;;
75016;SDS011;63577;39.766;2.720;2023-06-04T09:56:39;5.90;;;3.50;;
75016;SDS011;63577;39.766;2.720;2023-06-04T09:59:05;6.80;;;3.70;;
75016;SDS011;63577;39.766;2.720;2023-06-04T10:01:31;5.30;;;3.60;;
75016;SDS011;63577;39.766;2.720;2023-06-04T10:04:02;6.70;;;3.30;;
75016;SDS011;63577;39.766;2.720;2023-06-04T10:06:29;5.70;;;3.00;;
75016;SDS011;63577;39.766;2.720;2023-06-04T10:08:55;7.90;;;3.40;;
75016;SDS011;63577;39.766;2.720;2023-06-04T10:11:25;5.80;;;3.00;;
75016;SDS011;63577;39.766;2.720;2023-06-04T10:16:16;6.60;;;3.80;;
75016;SDS011;63577;39.766;2.720;2023-06-04T10:18:42;5.90;;;3.20;;
75016;SDS011;63577;39.766;2.720;2023-06-04T10:21:08;6.60;;;3.10;;
75016;SDS011;63577;39.766;2.720;2023-06-04T10:23:34;7.10;;;3.30;;
75016;SDS011;63577;39.766;2.720;2023-06-04T10:26:00;5.40;;;3.10;;
75016;SDS011;63577;39.766;2.720;2023-06-04T10:28:26;5.80;;;3.10;;
75016;SDS011;63577;39.766;2.720;2023-06-04T10:30:51;7.40;;;3.50;;
75016;SDS011;63577;39.766;2.720;2023-06-04T10:33:17;6.00;;;3.20;;
75016;SDS011;63577;39.766;2.720;2023-06-04T10:35:45;6.20;;;3.30;;
75016;SDS011;63577;39.766;2.720;2023-06-04T10:38:11;5.70;;;3.40;;
75016;SDS011;63577;39.766;2.720;2023-06-04T10:40:38;6.70;;;3.20;;
75016;SDS011;63577;39.766;2.720;2023-06-04T10:43:07;5.50;;;3.50;;
75016;SDS011;63577;39.766;2.720;2023-06-04T10:45:33;4.80;;;2.80;;
75016;SDS011;63577;39.766;2.720;2023-06-04T10:48:01;6.10;;;3.30;;
75016;SDS011;63577;39.766;2.720;2023-06-04T10:50:27;6.50;;;3.30;;
75016;SDS011;63577;39.766;2.720;2023-06-04T10:52:53;4.90;;;3.10;;
75016;SDS011;63577;39.766;2.720;2023-06-04T10:55:18;5.50;;;3.10;;
75016;SDS011;63577;39.766;2.720;2023-06-04T11:00:18;6.20;;;3.20;;
75016;SDS011;63577;39.766;2.720;2023-06-04T11:02:51;5.80;;;2.90;;
75016;SDS011;63577;39.766;2.720;2023-06-04T11:05:16;5.90;;;2.90;;
75016;SDS011;63577;39.766;2.720;2023-06-04T11:07:42;4.80;;;2.70;;
75016;SDS011;63577;39.766;2.720;2023-06-04T11:10:09;6.40;;;3.10;;
75016;SDS011;63577;39.766;2.720;2023-06-04T11:12:42;6.80;;;3.30;;
75016;SDS011;63577;39.766;2.720;2023-06-04T11:15:07;5.50;;;3.30;;
75016;SDS011;63577;39.766;2.720;2023-06-04T11:17:33;8.30;;;3.20;;
75016;SDS011;63577;39.766;2.720;2023-06-04T11:19:58;5.20;;;3.20;;
75016;SDS011;63577;39.766;2.720;2023-06-04T11:22:25;5.70;;;3.60;;
75016;SDS011;63577;39.766;2.720;2023-06-04T11:24:56;6.60;;;3.40;;
75016;SDS011;63577;39.766;2.720;2023-06-04T11:27:21;5.60;;;3.10;;
75016;SDS011;63577;39.766;2.720;2023-06-04T11:29:50;6.10;;;3.30;;
75016;SDS011;63577;39.766;2.720;2023-06-04T11:32:22;7.60;;;3.70;;
75016;SDS011;63577;39.766;2.720;2023-06-04T11:34:48;5.70;;;3.50;;
75016;SDS011;63577;39.766;2.720;2023-06-04T11:37:13;7.70;;;3.10;;
75016;SDS011;63577;39.766;2.720;2023-06-04T11:39:39;4.80;;;3.00;;
75016;SDS011;63577;39.766;2.720;2023-06-04T11:42:05;5.10;;;3.00;;
75016;SDS011;63577;39.766;2.720;2023-06-04T11:44:32;7.30;;;3.40;;
75016;SDS011;63577;39.766;2.720;2023-06-04T11:46:57;5.40;;;2.80;;
75016;SDS011;63577;39.766;2.720;2023-06-04T11:49:23;5.60;;;2.90;;
75016;SDS011;63577;39.766;2.720;2023-06-04T11:51:49;6.00;;;2.70;;
75016;SDS011;63577;39.766;2.720;2023-06-04T11:54:18;5.80;;;2.60;;
75016;SDS011;63577;39.766;2.720;2023-06-04T11:56:44;5.10;;;2.90;;
75016;SDS011;63577;39.766;2.720;2023-06-04T11:59:11;4.40;;;2.40;;
75016;SDS011;63577;39.766;2.720;2023-06-04T12:01:47;5.70;;;2.70;;
75016;SDS011;63577;39.766;2.720;2023-06-04T12:04:14;5.50;;;2.30;;
75016;SDS011;63577;39.766;2.720;2023-06-04T12:09:29;4.60;;;2.10;;
75016;SDS011;63577;39.766;2.720;2023-06-04T12:12:02;5.40;;;1.60;;
75016;SDS011;63577;39.766;2.720;2023-06-04T12:14:29;5.00;;;2.20;;
75016;SDS011;63577;39.766;2.720;2023-06-04T12:16:55;5.20;;;2.30;;
75016;SDS011;63577;39.766;2.720;2023-06-04T12:19:21;4.60;;;2.20;;
75016;SDS011;63577;39.766;2.720;2023-06-04T12:21:47;5.00;;;2.20;;
75016;SDS011;63577;39.766;2.720;2023-06-04T12:24:23;4.20;;;2.20;;
75016;SDS011;63577;39.766;2.720;2023-06-04T12:26:49;4.90;;;2.10;;
75016;SDS011;63577;39.766;2.720;2023-06-04T12:29:14;5.00;;;2.50;;
75016;SDS011;63577;39.766;2.720;2023-06-04T12:31:40;4.50;;;2.40;;
75016;SDS011;63577;39.766;2.720;2023-06-04T12:34:06;4.60;;;2.20;;
75016;SDS011;63577;39.766;2.720;2023-06-04T12:36:31;5.10;;;2.50;;
75016;SDS011;63577;39.766;2.720;2023-06-04T12:38:59;4.60;;;2.70;;
75016;SDS011;63577;39.766;2.720;2023-06-04T12:41:26;4.80;;;2.80;;
75016;SDS011;63577;39.766;2.720;2023-06-04T12:43:51;5.20;;;2.60;;
75016;SDS011;63577;39.766;2.720;2023-06-04T12:46:17;4.90;;;2.70;;
75016;SDS011;63577;39.766;2.720;2023-06-04T12:48:42;5.90;;;2.70;;
75016;SDS011;63577;39.766;2.720;2023-06-04T12:51:08;5.60;;;2.70;;
75016;SDS011;63577;39.766;2.720;2023-06-04T12:53:35;5.10;;;2.50;;
75016;SDS011;63577;39.766;2.720;2023-06-04T12:56:00;5.10;;;2.50;;
75016;SDS011;63577;39.766;2.720;2023-06-04T12:58:26;6.20;;;2.50;;
75016;SDS011;63577;39.766;2.720;2023-06-04T13:00:51;4.40;;;2.40;;
75016;SDS011;63577;39.766;2.720;2023-06-04T13:03:16;5.20;;;2.40;;
75016;SDS011;63577;39.766;2.720;2023-06-04T13:05:42;4.70;;;2.40;;
75016;SDS011;63577;39.766;2.720;2023-06-04T13:08:07;6.10;;;2.40;;
75016;SDS011;63577;39.766;2.720;2023-06-04T13:10:33;7.30;;;2.40;;
75016;SDS011;63577;39.766;2.720;2023-06-04T13:12:58;6.20;;;2.40;;
75016;SDS011;63577;39.766;2.720;2023-06-04T13:15:23;5.40;;;2.70;;
75016;SDS011;63577;39.766;2.720;2023-06-04T13:17:49;4.70;;;2.40;;
75016;SDS011;63577;39.766;2.720;2023-06-04T13:20:14;4.30;;;2.30;;
75016;SDS011;63577;39.766;2.720;2023-06-04T13:22:40;6.20;;;2.50;;
75016;SDS011;63577;39.766;2.720;2023-06-04T13:25:05;5.80;;;2.20;;
75016;SDS011;63577;39.766;2.720;2023-06-04T13:27:31;4.10;;;1.80;;
75016;SDS011;63577;39.766;2.720;2023-06-04T13:29:56;5.20;;;2.10;;
75016;SDS011;63577;39.766;2.720;2023-06-04T13:32:21;4.00;;;2.20;;
75016;SDS011;63577;39.766;2.720;2023-06-04T13:34:46;4.00;;;1.80;;
75016;SDS011;63577;39.766;2.720;2023-06-04T13:37:12;5.50;;;2.00;;
75016;SDS011;63577;39.766;2.720;2023-06-04T13:39:38;4.20;;;2.30;;
75016;SDS011;63577;39.766;2.720;2023-06-04T13:42:04;4.80;;;2.10;;
75016;SDS011;63577;39.766;2.720;2023-06-04T13:44:30;4.00;;;2.30;;
75016;SDS011;63577;39.766;2.720;2023-06-04T13:46:57;5.80;;;2.30;;
75016;SDS011;63577;39.766;2.720;2023-06-04T13:49:22;4.00;;;2.10;;
75016;SDS011;63577;39.766;2.720;2023-06-04T13:51:47;4.70;;;2.10;;
75016;SDS011;63577;39.766;2.720;2023-06-04T13:54:13;5.50;;;2.10;;
75016;SDS011;63577;39.766;2.720;2023-06-04T13:56:38;4.00;;;2.20;;
75016;SDS011;63577;39.766;2.720;2023-06-04T13:59:03;5.50;;;2.80;;
75016;SDS011;63577;39.766;2.720;2023-06-04T14:01:29;4.50;;;2.30;;
75016;SDS011;63577;39.766;2.720;2023-06-04T14:03:55;5.50;;;2.40;;
75016;SDS011;63577;39.766;2.720;2023-06-04T14:06:20;4.70;;;2.40;;
75016;SDS011;63577;39.766;2.720;2023-06-04T14:08:45;5.00;;;2.40;;
75016;SDS011;63577;39.766;2.720;2023-06-04T14:11:10;5.40;;;2.50;;
75016;SDS011;63577;39.766;2.720;2023-06-04T14:13:36;4.80;;;2.30;;
75016;SDS011;63577;39.766;2.720;2023-06-04T14:16:03;4.40;;;2.20;;
75016;SDS011;63577;39.766;2.720;2023-06-04T14:18:29;5.00;;;2.30;;
75016;SDS011;63577;39.766;2.720;2023-06-04T14:20:54;5.80;;;2.30;;
75016;SDS011;63577;39.766;2.720;2023-06-04T14:23:20;5.40;;;2.20;;
75016;SDS011;63577;39.766;2.720;2023-06-04T14:25:45;4.70;;;2.60;;
75016;SDS011;63577;39.766;2.720;2023-06-04T14:28:10;4.90;;;2.50;;
75016;SDS011;63577;39.766;2.720;2023-06-04T14:30:36;6.80;;;2.60;;
75016;SDS011;63577;39.766;2.720;2023-06-04T14:33:01;4.00;;;2.30;;
75016;SDS011;63577;39.766;2.720;2023-06-04T14:35:27;5.30;;;2.30;;
75016;SDS011;63577;39.766;2.720;2023-06-04T14:37:52;4.50;;;2.40;;
75016;SDS011;63577;39.766;2.720;2023-06-04T14:40:17;4.50;;;2.20;;
75016;SDS011;63577;39.766;2.720;2023-06-04T14:42:43;4.10;;;2.20;;
75016;SDS011;63577;39.766;2.720;2023-06-04T14:45:08;4.30;;;2.20;;
75016;SDS011;63577;39.766;2.720;2023-06-04T14:47:34;4.10;;;1.60;;
75016;SDS011;63577;39.766;2.720;2023-06-04T14:49:59;4.10;;;1.90;;
75016;SDS011;63577;39.766;2.720;2023-06-04T14:52:25;3.30;;;1.40;;
75016;SDS011;63577;39.766;2.720;2023-06-04T14:54:50;3.70;;;1.40;;
75016;SDS011;63577;39.766;2.720;2023-06-04T14:57:15;3.50;;;1.30;;